sensor_id;sensor_type;location;lat;lon;timestamp;P1;durP1;ratioP1;P2;durP2;ratioP2
9392;SDS011;4736;52.508;13.422;2023-04-09T00:02:11;27.87;;;22.57;;
9392;SDS011;4736;52.508;13.422;2023-04-09T00:05:15;28.73;;;23.60;;
9392;SDS011;4736;52.508;13.422;2023-04-09T00:08:18;25.23;;;22.00;;
9392;SDS011;4736;52.508;13.422;2023-04-09T00:11:21;29.77;;;25.17;;
9392;SDS011;4736;52.508;13.422;2023-04-09T00:14:25;29.53;;;24.57;;
9392;SDS011;4736;52.508;13.422;2023-04-09T00:17:29;29.30;;;24.60;;
9392;SDS011;4736;52.508;13.422;2023-04-09T00:20:32;29.10;;;23.63;;
9392;SDS011;4736;52.508;13.422;2023-04-09T00:23:36;30.90;;;25.00;;
9392;SDS011;4736;52.508;13.422;2023-04-09T00:26:39;27.03;;;23.30;;
9392;SDS011;4736;52.508;13.422;2023-04-09T00:29:44;34.53;;;27.30;;
9392;SDS011;4736;52.508;13.422;2023-04-09T00:32:47;30.30;;;25.60;;
9392;SDS011;4736;52.508;13.422;2023-04-09T00:35:51;32.63;;;25.43;;
9392;SDS011;4736;52.508;13.422;2023-04-09T00:38:54;32.97;;;25.40;;
9392;SDS011;4736;52.508;13.422;2023-04-09T00:41:59;33.93;;;26.23;;
9392;SDS011;4736;52.508;13.422;2023-04-09T00:45:06;35.10;;;27.13;;
9392;SDS011;4736;52.508;13.422;2023-04-09T00:48:10;37.00;;;28.50;;
9392;SDS011;4736;52.508;13.422;2023-04-09T00:51:13;39.37;;;29.17;;
9392;SDS011;4736;52.508;13.422;2023-04-09T00:54:17;35.53;;;27.33;;
9392;SDS011;4736;52.508;13.422;2023-04-09T00:57:20;37.93;;;28.53;;
9392;SDS011;4736;52.508;13.422;2023-04-09T01:00:28;41.70;;;30.77;;
9392;SDS011;4736;52.508;13.422;2023-04-09T01:03:31;39.63;;;30.50;;
9392;SDS011;4736;52.508;13.422;2023-04-09T01:06:37;48.30;;;34.67;;
9392;SDS011;4736;52.508;13.422;2023-04-09T01:09:46;39.57;;;31.57;;
9392;SDS011;4736;52.508;13.422;2023-04-09T01:12:59;42.17;;;31.70;;
9392;SDS011;4736;52.508;13.422;2023-04-09T01:16:10;43.90;;;31.73;;
9392;SDS011;4736;52.508;13.422;2023-04-09T01:19:18;38.23;;;28.30;;
9392;SDS011;4736;52.508;13.422;2023-04-09T01:22:39;35.87;;;27.00;;
9392;SDS011;4736;52.508;13.422;2023-04-09T01:25:53;35.27;;;26.23;;
9392;SDS011;4736;52.508;13.422;2023-04-09T01:29:06;36.37;;;26.97;;
9392;SDS011;4736;52.508;13.422;2023-04-09T01:32:10;32.30;;;24.93;;
9392;SDS011;4736;52.508;13.422;2023-04-09T01:35:15;30.57;;;26.00;;
9392;SDS011;4736;52.508;13.422;2023-04-09T01:38:19;36.17;;;26.70;;
9392;SDS011;4736;52.508;13.422;2023-04-09T01:41:24;35.43;;;25.23;;
9392;SDS011;4736;52.508;13.422;2023-04-09T01:44:32;33.00;;;25.80;;
9392;SDS011;4736;52.508;13.422;2023-04-09T01:47:37;28.17;;;23.43;;
9392;SDS011;4736;52.508;13.422;2023-04-09T01:50:41;35.53;;;26.70;;
9392;SDS011;4736;52.508;13.422;2023-04-09T01:53:45;35.23;;;26.37;;
9392;SDS011;4736;52.508;13.422;2023-04-09T01:56:48;31.47;;;25.23;;
9392;SDS011;4736;52.508;13.422;2023-04-09T01:59:53;30.87;;;24.23;;
9392;SDS011;4736;52.508;13.422;2023-04-09T02:02:58;30.17;;;25.30;;
9392;SDS011;4736;52.508;13.422;2023-04-09T02:06:10;31.17;;;24.93;;
9392;SDS011;4736;52.508;13.422;2023-04-09T02:09:17;30.53;;;24.30;;
9392;SDS011;4736;52.508;13.422;2023-04-09T02:12:22;31.90;;;25.17;;
9392;SDS011;4736;52.508;13.422;2023-04-09T02:15:28;29.67;;;24.43;;
9392;SDS011;4736;52.508;13.422;2023-04-09T02:18:36;32.37;;;25.17;;
9392;SDS011;4736;52.508;13.422;2023-04-09T02:21:39;29.40;;;24.50;;
9392;SDS011;4736;52.508;13.422;2023-04-09T02:24:43;29.60;;;25.60;;
9392;SDS011;4736;52.508;13.422;2023-04-09T02:27:47;28.27;;;23.17;;
9392;SDS011;4736;52.508;13.422;2023-04-09T02:30:52;35.13;;;25.80;;
9392;SDS011;4736;52.508;13.422;2023-04-09T02:33:55;30.07;;;25.13;;
9392;SDS011;4736;52.508;13.422;2023-04-09T02:36:58;31.87;;;25.63;;
9392;SDS011;4736;52.508;13.422;2023-04-09T02:40:01;32.53;;;25.67;;
9392;SDS011;4736;52.508;13.422;2023-04-09T02:43:05;33.93;;;25.93;;
9392;SDS011;4736;52.508;13.422;2023-04-09T02:46:10;31.20;;;24.27;;
9392;SDS011;4736;52.508;13.422;2023-04-09T02:49:13;28.57;;;24.03;;
9392;SDS011;4736;52.508;13.422;2023-04-09T02:52:18;30.43;;;23.97;;
9392;SDS011;4736;52.508;13.422;2023-04-09T02:55:24;37.43;;;27.77;;
9392;SDS011;4736;52.508;13.422;2023-04-09T02:58:27;33.03;;;25.77;;
9392;SDS011;4736;52.508;13.422;2023-04-09T03:01:35;36.13;;;25.93;;
9392;SDS011;4736;52.508;13.422;2023-04-09T03:04:39;32.97;;;26.30;;
9392;SDS011;4736;52.508;13.422;2023-04-09T03:07:42;32.33;;;25.93;;
9392;SDS011;4736;52.508;13.422;2023-04-09T03:10:45;32.13;;;24.83;;
9392;SDS011;4736;52.508;13.422;2023-04-09T03:13:48;31.87;;;24.67;;
9392;SDS011;4736;52.508;13.422;2023-04-09T03:16:53;32.37;;;25.33;;
9392;SDS011;4736;52.508;13.422;2023-04-09T03:19:56;31.50;;;26.57;;
9392;SDS011;4736;52.508;13.422;2023-04-09T03:22:59;30.63;;;24.83;;
9392;SDS011;4736;52.508;13.422;2023-04-09T03:26:03;33.47;;;26.07;;
9392;SDS011;4736;52.508;13.422;2023-04-09T03:29:07;33.17;;;26.13;;
9392;SDS011;4736;52.508;13.422;2023-04-09T03:32:11;30.90;;;25.43;;
9392;SDS011;4736;52.508;13.422;2023-04-09T03:35:18;38.83;;;28.20;;
9392;SDS011;4736;52.508;13.422;2023-04-09T03:38:21;39.00;;;29.13;;
9392;SDS011;4736;52.508;13.422;2023-04-09T03:41:24;34.87;;;27.00;;
9392;SDS011;4736;52.508;13.422;2023-04-09T03:44:27;39.97;;;30.03;;
9392;SDS011;4736;52.508;13.422;2023-04-09T03:47:32;40.30;;;29.67;;
9392;SDS011;4736;52.508;13.422;2023-04-09T03:50:38;46.73;;;32.87;;
9392;SDS011;4736;52.508;13.422;2023-04-09T03:53:41;47.80;;;33.70;;
9392;SDS011;4736;52.508;13.422;2023-04-09T03:56:45;44.10;;;33.53;;
9392;SDS011;4736;52.508;13.422;2023-04-09T03:59:48;44.53;;;30.90;;
9392;SDS011;4736;52.508;13.422;2023-04-09T04:02:54;43.47;;;30.60;;
9392;SDS011;4736;52.508;13.422;2023-04-09T04:06:01;41.17;;;30.30;;
9392;SDS011;4736;52.508;13.422;2023-04-09T04:09:05;41.83;;;28.73;;
9392;SDS011;4736;52.508;13.422;2023-04-09T04:12:08;45.93;;;32.93;;
9392;SDS011;4736;52.508;13.422;2023-04-09T04:15:11;43.73;;;30.87;;
9392;SDS011;4736;52.508;13.422;2023-04-09T04:18:16;36.50;;;29.97;;
9392;SDS011;4736;52.508;13.422;2023-04-09T04:21:19;40.93;;;31.43;;
9392;SDS011;4736;52.508;13.422;2023-04-09T04:24:22;43.43;;;31.47;;
9392;SDS011;4736;52.508;13.422;2023-04-09T04:27:25;39.63;;;29.60;;
9392;SDS011;4736;52.508;13.422;2023-04-09T04:30:28;40.90;;;30.27;;
9392;SDS011;4736;52.508;13.422;2023-04-09T04:33:33;42.87;;;31.43;;
9392;SDS011;4736;52.508;13.422;2023-04-09T04:36:36;45.30;;;30.87;;
9392;SDS011;4736;52.508;13.422;2023-04-09T04:39:42;41.97;;;31.33;;
9392;SDS011;4736;52.508;13.422;2023-04-09T04:42:45;44.37;;;31.87;;
9392;SDS011;4736;52.508;13.422;2023-04-09T04:45:48;42.87;;;30.00;;
9392;SDS011;4736;52.508;13.422;2023-04-09T04:48:55;41.73;;;30.10;;
9392;SDS011;4736;52.508;13.422;2023-04-09T04:51:58;44.53;;;31.43;;
9392;SDS011;4736;52.508;13.422;2023-04-09T04:55:01;43.07;;;31.77;;
9392;SDS011;4736;52.508;13.422;2023-04-09T04:58:04;39.73;;;29.90;;
9392;SDS011;4736;52.508;13.422;2023-04-09T05:01:07;46.93;;;31.73;;
9392;SDS011;4736;52.508;13.422;2023-04-09T05:04:12;47.67;;;31.47;;
9392;SDS011;4736;52.508;13.422;2023-04-09T05:07:15;46.03;;;32.50;;
9392;SDS011;4736;52.508;13.422;2023-04-09T05:10:18;41.93;;;29.90;;
9392;SDS011;4736;52.508;13.422;2023-04-09T05:13:21;39.90;;;29.90;;
9392;SDS011;4736;52.508;13.422;2023-04-09T05:16:25;46.47;;;33.17;;
9392;SDS011;4736;52.508;13.422;2023-04-09T05:19:29;46.67;;;30.30;;
9392;SDS011;4736;52.508;13.422;2023-04-09T05:22:32;38.90;;;28.17;;
9392;SDS011;4736;52.508;13.422;2023-04-09T05:25:36;43.60;;;30.77;;
9392;SDS011;4736;52.508;13.422;2023-04-09T05:28:39;44.70;;;30.57;;
9392;SDS011;4736;52.508;13.422;2023-04-09T05:31:42;37.03;;;26.20;;
9392;SDS011;4736;52.508;13.422;2023-04-09T05:34:47;34.17;;;26.20;;
9392;SDS011;4736;52.508;13.422;2023-04-09T05:37:50;37.93;;;27.27;;
9392;SDS011;4736;52.508;13.422;2023-04-09T05:40:53;42.00;;;30.10;;
9392;SDS011;4736;52.508;13.422;2023-04-09T05:43:56;38.67;;;28.27;;
9392;SDS011;4736;52.508;13.422;2023-04-09T05:47:01;40.67;;;29.33;;
9392;SDS011;4736;52.508;13.422;2023-04-09T05:50:06;44.30;;;31.20;;
9392;SDS011;4736;52.508;13.422;2023-04-09T05:53:09;47.83;;;31.60;;
9392;SDS011;4736;52.508;13.422;2023-04-09T05:56:12;45.03;;;30.63;;
9392;SDS011;4736;52.508;13.422;2023-04-09T05:59:16;40.73;;;28.93;;
9392;SDS011;4736;52.508;13.422;2023-04-09T06:02:19;50.00;;;33.60;;
9392;SDS011;4736;52.508;13.422;2023-04-09T06:05:24;44.60;;;30.60;;
9392;SDS011;4736;52.508;13.422;2023-04-09T06:08:28;45.10;;;31.77;;
9392;SDS011;4736;52.508;13.422;2023-04-09T06:11:31;41.17;;;28.97;;
9392;SDS011;4736;52.508;13.422;2023-04-09T06:14:34;46.37;;;31.30;;
9392;SDS011;4736;52.508;13.422;2023-04-09T06:17:38;43.23;;;30.40;;
9392;SDS011;4736;52.508;13.422;2023-04-09T06:20:42;47.93;;;32.60;;
9392;SDS011;4736;52.508;13.422;2023-04-09T06:23:45;38.83;;;28.83;;
9392;SDS011;4736;52.508;13.422;2023-04-09T06:26:48;46.87;;;33.93;;
9392;SDS011;4736;52.508;13.422;2023-04-09T06:29:52;48.70;;;34.57;;
9392;SDS011;4736;52.508;13.422;2023-04-09T06:32:55;50.27;;;34.83;;
9392;SDS011;4736;52.508;13.422;2023-04-09T06:35:59;46.73;;;31.70;;
9392;SDS011;4736;52.508;13.422;2023-04-09T06:39:02;44.73;;;31.83;;
9392;SDS011;4736;52.508;13.422;2023-04-09T06:42:05;40.33;;;29.73;;
9392;SDS011;4736;52.508;13.422;2023-04-09T06:45:09;46.70;;;33.60;;
9392;SDS011;4736;52.508;13.422;2023-04-09T06:48:12;43.67;;;31.67;;
9392;SDS011;4736;52.508;13.422;2023-04-09T06:51:17;47.57;;;32.57;;
9392;SDS011;4736;52.508;13.422;2023-04-09T06:54:20;40.03;;;29.87;;
9392;SDS011;4736;52.508;13.422;2023-04-09T06:57:23;42.90;;;31.70;;
9392;SDS011;4736;52.508;13.422;2023-04-09T07:00:27;42.23;;;31.47;;
9392;SDS011;4736;52.508;13.422;2023-04-09T07:03:30;39.63;;;30.90;;
9392;SDS011;4736;52.508;13.422;2023-04-09T07:06:35;45.17;;;33.17;;
9392;SDS011;4736;52.508;13.422;2023-04-09T07:09:38;42.50;;;31.17;;
9392;SDS011;4736;52.508;13.422;2023-04-09T07:12:42;43.33;;;31.70;;
9392;SDS011;4736;52.508;13.422;2023-04-09T07:15:46;42.33;;;31.17;;
9392;SDS011;4736;52.508;13.422;2023-04-09T07:18:49;40.50;;;32.17;;
9392;SDS011;4736;52.508;13.422;2023-04-09T07:21:53;41.80;;;31.63;;
9392;SDS011;4736;52.508;13.422;2023-04-09T07:24:56;38.80;;;30.67;;
9392;SDS011;4736;52.508;13.422;2023-04-09T07:27:59;39.53;;;31.57;;
9392;SDS011;4736;52.508;13.422;2023-04-09T07:31:03;37.23;;;28.60;;
9392;SDS011;4736;52.508;13.422;2023-04-09T07:34:06;36.77;;;28.27;;
9392;SDS011;4736;52.508;13.422;2023-04-09T07:37:11;36.70;;;27.77;;
9392;SDS011;4736;52.508;13.422;2023-04-09T07:40:14;34.83;;;28.30;;
9392;SDS011;4736;52.508;13.422;2023-04-09T07:43:17;33.23;;;27.77;;
9392;SDS011;4736;52.508;13.422;2023-04-09T07:46:23;37.93;;;28.43;;
9392;SDS011;4736;52.508;13.422;2023-04-09T07:49:26;38.90;;;28.83;;
9392;SDS011;4736;52.508;13.422;2023-04-09T07:52:31;34.97;;;28.13;;
9392;SDS011;4736;52.508;13.422;2023-04-09T07:55:34;35.63;;;28.60;;
9392;SDS011;4736;52.508;13.422;2023-04-09T07:58:37;35.43;;;28.97;;
9392;SDS011;4736;52.508;13.422;2023-04-09T08:01:40;36.40;;;28.90;;
9392;SDS011;4736;52.508;13.422;2023-04-09T08:04:43;36.93;;;28.63;;
9392;SDS011;4736;52.508;13.422;2023-04-09T08:07:49;39.37;;;29.00;;
9392;SDS011;4736;52.508;13.422;2023-04-09T08:10:52;36.47;;;28.80;;
9392;SDS011;4736;52.508;13.422;2023-04-09T08:13:56;36.40;;;28.47;;
9392;SDS011;4736;52.508;13.422;2023-04-09T08:17:01;38.50;;;28.27;;
9392;SDS011;4736;52.508;13.422;2023-04-09T08:20:05;37.50;;;29.70;;
9392;SDS011;4736;52.508;13.422;2023-04-09T08:23:10;35.03;;;28.23;;
9392;SDS011;4736;52.508;13.422;2023-04-09T08:26:13;34.37;;;28.40;;
9392;SDS011;4736;52.508;13.422;2023-04-09T08:29:16;36.33;;;29.60;;
9392;SDS011;4736;52.508;13.422;2023-04-09T08:32:19;35.37;;;28.57;;
9392;SDS011;4736;52.508;13.422;2023-04-09T08:35:23;34.77;;;28.77;;
9392;SDS011;4736;52.508;13.422;2023-04-09T08:38:27;36.70;;;29.50;;
9392;SDS011;4736;52.508;13.422;2023-04-09T08:41:30;40.40;;;32.10;;
9392;SDS011;4736;52.508;13.422;2023-04-09T08:44:33;43.03;;;31.70;;
9392;SDS011;4736;52.508;13.422;2023-04-09T08:47:37;36.07;;;29.13;;
9392;SDS011;4736;52.508;13.422;2023-04-09T08:50:43;34.97;;;29.13;;
9392;SDS011;4736;52.508;13.422;2023-04-09T08:53:51;36.77;;;30.07;;
9392;SDS011;4736;52.508;13.422;2023-04-09T08:56:57;40.47;;;30.67;;
9392;SDS011;4736;52.508;13.422;2023-04-09T09:00:00;37.60;;;30.87;;
9392;SDS011;4736;52.508;13.422;2023-04-09T09:03:05;36.57;;;28.57;;
9392;SDS011;4736;52.508;13.422;2023-04-09T09:06:10;37.13;;;28.73;;
9392;SDS011;4736;52.508;13.422;2023-04-09T09:09:24;35.77;;;29.40;;
9392;SDS011;4736;52.508;13.422;2023-04-09T09:12:31;35.83;;;28.83;;
9392;SDS011;4736;52.508;13.422;2023-04-09T09:15:35;37.83;;;30.23;;
9392;SDS011;4736;52.508;13.422;2023-04-09T09:18:38;38.30;;;29.90;;
9392;SDS011;4736;52.508;13.422;2023-04-09T09:21:53;39.63;;;30.37;;
9392;SDS011;4736;52.508;13.422;2023-04-09T09:24:58;36.77;;;30.47;;
9392;SDS011;4736;52.508;13.422;2023-04-09T09:28:05;36.83;;;29.67;;
9392;SDS011;4736;52.508;13.422;2023-04-09T09:31:09;36.57;;;28.37;;
9392;SDS011;4736;52.508;13.422;2023-04-09T09:34:13;35.47;;;29.87;;
9392;SDS011;4736;52.508;13.422;2023-04-09T09:37:24;37.33;;;28.93;;
9392;SDS011;4736;52.508;13.422;2023-04-09T09:40:29;31.83;;;26.33;;
9392;SDS011;4736;52.508;13.422;2023-04-09T09:43:38;34.97;;;28.47;;
9392;SDS011;4736;52.508;13.422;2023-04-09T09:46:42;36.37;;;29.87;;
9392;SDS011;4736;52.508;13.422;2023-04-09T09:49:46;35.20;;;28.10;;
9392;SDS011;4736;52.508;13.422;2023-04-09T09:52:51;32.80;;;27.30;;
9392;SDS011;4736;52.508;13.422;2023-04-09T09:56:01;33.20;;;28.47;;
9392;SDS011;4736;52.508;13.422;2023-04-09T09:59:09;33.90;;;27.63;;
9392;SDS011;4736;52.508;13.422;2023-04-09T10:02:17;35.17;;;28.23;;
9392;SDS011;4736;52.508;13.422;2023-04-09T10:05:22;31.00;;;26.67;;
9392;SDS011;4736;52.508;13.422;2023-04-09T10:08:27;34.13;;;28.17;;
9392;SDS011;4736;52.508;13.422;2023-04-09T10:11:35;30.33;;;25.40;;
9392;SDS011;4736;52.508;13.422;2023-04-09T10:14:39;33.67;;;26.53;;
9392;SDS011;4736;52.508;13.422;2023-04-09T10:17:44;29.73;;;26.50;;
9392;SDS011;4736;52.508;13.422;2023-04-09T10:20:48;29.27;;;24.77;;
9392;SDS011;4736;52.508;13.422;2023-04-09T10:23:56;28.20;;;24.93;;
9392;SDS011;4736;52.508;13.422;2023-04-09T10:27:09;30.53;;;25.07;;
9392;SDS011;4736;52.508;13.422;2023-04-09T10:30:32;30.27;;;26.07;;
9392;SDS011;4736;52.508;13.422;2023-04-09T10:33:36;28.23;;;24.13;;
9392;SDS011;4736;52.508;13.422;2023-04-09T10:36:41;33.17;;;26.43;;
9392;SDS011;4736;52.508;13.422;2023-04-09T10:39:45;28.77;;;24.00;;
9392;SDS011;4736;52.508;13.422;2023-04-09T10:42:51;28.87;;;24.67;;
9392;SDS011;4736;52.508;13.422;2023-04-09T10:45:56;27.00;;;23.43;;
9392;SDS011;4736;52.508;13.422;2023-04-09T10:49:11;29.90;;;24.87;;
9392;SDS011;4736;52.508;13.422;2023-04-09T10:52:17;26.73;;;22.70;;
9392;SDS011;4736;52.508;13.422;2023-04-09T10:55:35;25.43;;;22.20;;
9392;SDS011;4736;52.508;13.422;2023-04-09T10:58:40;27.03;;;23.33;;
9392;SDS011;4736;52.508;13.422;2023-04-09T11:01:50;25.67;;;21.93;;
9392;SDS011;4736;52.508;13.422;2023-04-09T11:04:58;25.87;;;21.77;;
9392;SDS011;4736;52.508;13.422;2023-04-09T11:08:08;26.97;;;23.43;;
9392;SDS011;4736;52.508;13.422;2023-04-09T11:11:13;23.93;;;21.33;;
9392;SDS011;4736;52.508;13.422;2023-04-09T11:14:19;25.90;;;21.40;;
9392;SDS011;4736;52.508;13.422;2023-04-09T11:17:24;24.60;;;20.80;;
9392;SDS011;4736;52.508;13.422;2023-04-09T11:20:27;23.30;;;20.77;;
9392;SDS011;4736;52.508;13.422;2023-04-09T11:23:31;23.87;;;21.27;;
9392;SDS011;4736;52.508;13.422;2023-04-09T11:26:35;26.33;;;21.10;;
9392;SDS011;4736;52.508;13.422;2023-04-09T11:29:39;24.93;;;22.17;;
9392;SDS011;4736;52.508;13.422;2023-04-09T11:32:43;24.17;;;21.57;;
9392;SDS011;4736;52.508;13.422;2023-04-09T11:35:46;23.83;;;21.33;;
9392;SDS011;4736;52.508;13.422;2023-04-09T11:38:49;22.87;;;20.43;;
9392;SDS011;4736;52.508;13.422;2023-04-09T11:41:54;25.23;;;21.60;;
9392;SDS011;4736;52.508;13.422;2023-04-09T11:44:59;25.00;;;21.67;;
9392;SDS011;4736;52.508;13.422;2023-04-09T11:48:10;23.93;;;21.23;;
9392;SDS011;4736;52.508;13.422;2023-04-09T11:51:13;28.03;;;22.20;;
9392;SDS011;4736;52.508;13.422;2023-04-09T11:54:16;22.60;;;20.27;;
9392;SDS011;4736;52.508;13.422;2023-04-09T11:57:19;22.73;;;19.63;;
9392;SDS011;4736;52.508;13.422;2023-04-09T12:00:24;22.40;;;19.77;;
9392;SDS011;4736;52.508;13.422;2023-04-09T12:03:27;22.77;;;19.57;;
9392;SDS011;4736;52.508;13.422;2023-04-09T12:06:33;22.47;;;20.10;;
9392;SDS011;4736;52.508;13.422;2023-04-09T12:09:45;22.57;;;19.70;;
9392;SDS011;4736;52.508;13.422;2023-04-09T12:12:50;22.17;;;19.87;;
9392;SDS011;4736;52.508;13.422;2023-04-09T12:15:54;23.90;;;20.30;;
9392;SDS011;4736;52.508;13.422;2023-04-09T12:18:59;21.73;;;19.57;;
9392;SDS011;4736;52.508;13.422;2023-04-09T12:22:02;24.23;;;21.27;;
9392;SDS011;4736;52.508;13.422;2023-04-09T12:25:05;21.73;;;19.43;;
9392;SDS011;4736;52.508;13.422;2023-04-09T12:28:10;22.97;;;20.27;;
9392;SDS011;4736;52.508;13.422;2023-04-09T12:31:17;23.50;;;20.93;;
9392;SDS011;4736;52.508;13.422;2023-04-09T12:34:20;22.33;;;19.93;;
9392;SDS011;4736;52.508;13.422;2023-04-09T12:37:23;24.93;;;21.43;;
9392;SDS011;4736;52.508;13.422;2023-04-09T12:40:26;23.03;;;20.30;;
9392;SDS011;4736;52.508;13.422;2023-04-09T12:43:29;25.23;;;20.97;;
9392;SDS011;4736;52.508;13.422;2023-04-09T12:46:33;21.87;;;19.57;;
9392;SDS011;4736;52.508;13.422;2023-04-09T12:49:37;23.40;;;20.70;;
9392;SDS011;4736;52.508;13.422;2023-04-09T12:52:42;22.57;;;20.17;;
9392;SDS011;4736;52.508;13.422;2023-04-09T12:55:46;23.83;;;20.90;;
9392;SDS011;4736;52.508;13.422;2023-04-09T12:58:49;23.87;;;21.40;;
9392;SDS011;4736;52.508;13.422;2023-04-09T13:01:54;24.37;;;21.40;;
9392;SDS011;4736;52.508;13.422;2023-04-09T13:04:57;25.63;;;21.37;;
9392;SDS011;4736;52.508;13.422;2023-04-09T13:08:00;22.13;;;19.73;;
9392;SDS011;4736;52.508;13.422;2023-04-09T13:11:03;22.90;;;20.47;;
9392;SDS011;4736;52.508;13.422;2023-04-09T13:14:07;21.90;;;19.40;;
9392;SDS011;4736;52.508;13.422;2023-04-09T13:17:15;24.23;;;21.63;;
9392;SDS011;4736;52.508;13.422;2023-04-09T13:20:18;25.40;;;21.00;;
9392;SDS011;4736;52.508;13.422;2023-04-09T13:23:21;23.53;;;19.93;;
9392;SDS011;4736;52.508;13.422;2023-04-09T13:26:24;21.50;;;19.17;;
9392;SDS011;4736;52.508;13.422;2023-04-09T13:29:27;23.67;;;21.17;;
9392;SDS011;4736;52.508;13.422;2023-04-09T13:32:31;23.20;;;20.60;;
9392;SDS011;4736;52.508;13.422;2023-04-09T13:35:34;24.47;;;21.87;;
9392;SDS011;4736;52.508;13.422;2023-04-09T13:38:37;19.20;;;17.20;;
9392;SDS011;4736;52.508;13.422;2023-04-09T13:41:41;22.93;;;19.43;;
9392;SDS011;4736;52.508;13.422;2023-04-09T13:44:44;23.03;;;20.60;;
9392;SDS011;4736;52.508;13.422;2023-04-09T13:47:48;20.23;;;18.17;;
9392;SDS011;4736;52.508;13.422;2023-04-09T13:50:51;22.40;;;20.00;;
9392;SDS011;4736;52.508;13.422;2023-04-09T13:53:54;24.23;;;21.63;;
9392;SDS011;4736;52.508;13.422;2023-04-09T13:56:57;21.83;;;19.63;;
9392;SDS011;4736;52.508;13.422;2023-04-09T14:00:00;22.23;;;19.13;;
9392;SDS011;4736;52.508;13.422;2023-04-09T14:03:07;20.47;;;18.37;;
9392;SDS011;4736;52.508;13.422;2023-04-09T14:06:12;23.70;;;20.20;;
9392;SDS011;4736;52.508;13.422;2023-04-09T14:09:15;20.33;;;18.23;;
9392;SDS011;4736;52.508;13.422;2023-04-09T14:12:18;19.53;;;17.57;;
9392;SDS011;4736;52.508;13.422;2023-04-09T14:15:21;19.97;;;17.97;;
9392;SDS011;4736;52.508;13.422;2023-04-09T14:18:26;19.20;;;17.20;;
9392;SDS011;4736;52.508;13.422;2023-04-09T14:21:29;20.77;;;18.57;;
9392;SDS011;4736;52.508;13.422;2023-04-09T14:24:32;22.93;;;20.13;;
9392;SDS011;4736;52.508;13.422;2023-04-09T14:27:40;21.53;;;19.23;;
9392;SDS011;4736;52.508;13.422;2023-04-09T14:30:44;21.77;;;19.47;;
9392;SDS011;4736;52.508;13.422;2023-04-09T14:33:49;21.93;;;19.47;;
9392;SDS011;4736;52.508;13.422;2023-04-09T14:36:52;19.60;;;17.47;;
9392;SDS011;4736;52.508;13.422;2023-04-09T14:39:55;19.20;;;17.30;;
9392;SDS011;4736;52.508;13.422;2023-04-09T14:42:58;21.30;;;19.00;;
9392;SDS011;4736;52.508;13.422;2023-04-09T14:46:02;19.47;;;17.57;;
9392;SDS011;4736;52.508;13.422;2023-04-09T14:49:08;21.33;;;18.73;;
9392;SDS011;4736;52.508;13.422;2023-04-09T14:52:11;19.73;;;17.73;;
9392;SDS011;4736;52.508;13.422;2023-04-09T14:55:14;21.17;;;19.03;;
9392;SDS011;4736;52.508;13.422;2023-04-09T14:58:17;21.20;;;18.87;;
9392;SDS011;4736;52.508;13.422;2023-04-09T15:01:21;20.53;;;18.43;;
9392;SDS011;4736;52.508;13.422;2023-04-09T15:04:25;18.40;;;16.63;;
9392;SDS011;4736;52.508;13.422;2023-04-09T15:07:28;20.03;;;17.93;;
9392;SDS011;4736;52.508;13.422;2023-04-09T15:10:31;20.10;;;18.03;;
9392;SDS011;4736;52.508;13.422;2023-04-09T15:13:37;20.70;;;18.70;;
9392;SDS011;4736;52.508;13.422;2023-04-09T15:16:40;21.57;;;18.87;;
9392;SDS011;4736;52.508;13.422;2023-04-09T15:19:44;19.63;;;17.63;;
9392;SDS011;4736;52.508;13.422;2023-04-09T15:22:48;23.23;;;18.97;;
9392;SDS011;4736;52.508;13.422;2023-04-09T15:25:51;21.30;;;19.00;;
9392;SDS011;4736;52.508;13.422;2023-04-09T15:28:55;21.80;;;18.33;;
9392;SDS011;4736;52.508;13.422;2023-04-09T15:32:03;21.13;;;18.80;;
9392;SDS011;4736;52.508;13.422;2023-04-09T15:35:08;21.40;;;19.20;;
9392;SDS011;4736;52.508;13.422;2023-04-09T15:38:13;22.13;;;19.30;;
9392;SDS011;4736;52.508;13.422;2023-04-09T15:41:21;18.67;;;16.77;;
9392;SDS011;4736;52.508;13.422;2023-04-09T15:44:27;22.23;;;19.83;;
9392;SDS011;4736;52.508;13.422;2023-04-09T15:47:30;18.53;;;16.60;;
9392;SDS011;4736;52.508;13.422;2023-04-09T15:50:35;20.93;;;18.73;;
9392;SDS011;4736;52.508;13.422;2023-04-09T15:53:41;21.77;;;18.23;;
9392;SDS011;4736;52.508;13.422;2023-04-09T15:56:44;20.23;;;18.07;;
9392;SDS011;4736;52.508;13.422;2023-04-09T15:59:47;17.90;;;16.00;;
9392;SDS011;4736;52.508;13.422;2023-04-09T16:02:52;21.00;;;17.83;;
9392;SDS011;4736;52.508;13.422;2023-04-09T16:05:56;19.23;;;17.27;;
9392;SDS011;4736;52.508;13.422;2023-04-09T16:09:01;18.60;;;16.43;;
9392;SDS011;4736;52.508;13.422;2023-04-09T16:12:05;18.23;;;16.43;;
9392;SDS011;4736;52.508;13.422;2023-04-09T16:15:09;15.87;;;14.37;;
9392;SDS011;4736;52.508;13.422;2023-04-09T16:18:13;16.77;;;15.17;;
9392;SDS011;4736;52.508;13.422;2023-04-09T16:21:18;22.23;;;17.43;;
9392;SDS011;4736;52.508;13.422;2023-04-09T16:24:21;17.80;;;15.90;;
9392;SDS011;4736;52.508;13.422;2023-04-09T16:27:24;21.60;;;19.10;;
9392;SDS011;4736;52.508;13.422;2023-04-09T16:30:28;18.43;;;16.53;;
9392;SDS011;4736;52.508;13.422;2023-04-09T16:33:32;18.63;;;16.80;;
9392;SDS011;4736;52.508;13.422;2023-04-09T16:36:36;18.73;;;16.87;;
9392;SDS011;4736;52.508;13.422;2023-04-09T16:39:41;17.97;;;16.13;;
9392;SDS011;4736;52.508;13.422;2023-04-09T16:42:47;18.53;;;16.63;;
9392;SDS011;4736;52.508;13.422;2023-04-09T16:45:50;17.33;;;15.53;;
9392;SDS011;4736;52.508;13.422;2023-04-09T16:48:53;18.10;;;16.37;;
9392;SDS011;4736;52.508;13.422;2023-04-09T16:51:58;14.57;;;13.23;;
9392;SDS011;4736;52.508;13.422;2023-04-09T16:55:01;17.03;;;15.43;;
9392;SDS011;4736;52.508;13.422;2023-04-09T16:58:04;16.47;;;14.93;;
9392;SDS011;4736;52.508;13.422;2023-04-09T17:01:07;15.97;;;14.40;;
9392;SDS011;4736;52.508;13.422;2023-04-09T17:04:10;14.80;;;13.40;;
9392;SDS011;4736;52.508;13.422;2023-04-09T17:07:15;15.33;;;13.87;;
9392;SDS011;4736;52.508;13.422;2023-04-09T17:10:18;13.90;;;12.67;;
9392;SDS011;4736;52.508;13.422;2023-04-09T17:13:22;16.20;;;14.60;;
9392;SDS011;4736;52.508;13.422;2023-04-09T17:16:25;15.63;;;14.17;;
9392;SDS011;4736;52.508;13.422;2023-04-09T17:19:28;14.30;;;13.07;;
9392;SDS011;4736;52.508;13.422;2023-04-09T17:22:33;16.37;;;14.73;;
9392;SDS011;4736;52.508;13.422;2023-04-09T17:25:36;18.00;;;16.10;;
9392;SDS011;4736;52.508;13.422;2023-04-09T17:28:39;18.67;;;16.67;;
9392;SDS011;4736;52.508;13.422;2023-04-09T17:31:43;18.27;;;16.43;;
9392;SDS011;4736;52.508;13.422;2023-04-09T17:34:46;17.23;;;15.60;;
9392;SDS011;4736;52.508;13.422;2023-04-09T17:37:51;19.47;;;17.57;;
9392;SDS011;4736;52.508;13.422;2023-04-09T17:40:54;19.97;;;17.93;;
9392;SDS011;4736;52.508;13.422;2023-04-09T17:43:57;20.10;;;18.00;;
9392;SDS011;4736;52.508;13.422;2023-04-09T17:47:00;19.70;;;17.70;;
9392;SDS011;4736;52.508;13.422;2023-04-09T17:50:03;18.93;;;16.93;;
9392;SDS011;4736;52.508;13.422;2023-04-09T17:53:09;21.17;;;18.77;;
9392;SDS011;4736;52.508;13.422;2023-04-09T17:56:13;19.97;;;17.97;;
9392;SDS011;4736;52.508;13.422;2023-04-09T17:59:17;20.30;;;18.10;;
9392;SDS011;4736;52.508;13.422;2023-04-09T18:02:20;18.83;;;16.37;;
9392;SDS011;4736;52.508;13.422;2023-04-09T18:05:24;18.53;;;16.63;;
9392;SDS011;4736;52.508;13.422;2023-04-09T18:08:28;18.77;;;16.97;;
9392;SDS011;4736;52.508;13.422;2023-04-09T18:11:31;18.37;;;16.57;;
9392;SDS011;4736;52.508;13.422;2023-04-09T18:14:34;20.03;;;18.00;;